sensor_id;sensor_type;location;lat;lon;timestamp;temperature;humidity
29237;DHT22;16266;50.866;4.398;2022-07-29T00:02:13;18.90;99.90
29237;DHT22;16266;50.866;4.398;2022-07-29T00:04:39;18.90;99.90
29237;DHT22;16266;50.866;4.398;2022-07-29T00:07:04;18.90;99.90
29237;DHT22;16266;50.866;4.398;2022-07-29T00:09:31;18.90;99.90
29237;DHT22;16266;50.866;4.398;2022-07-29T00:11:59;18.90;99.90
29237;DHT22;16266;50.866;4.398;2022-07-29T00:14:26;18.90;99.90
29237;DHT22;16266;50.866;4.398;2022-07-29T00:16:51;18.90;99.90
29237;DHT22;16266;50.866;4.398;2022-07-29T00:19:17;18.90;99.90
29237;DHT22;16266;50.866;4.398;2022-07-29T00:21:43;18.80;99.90
29237;DHT22;16266;50.866;4.398;2022-07-29T00:24:08;18.80;99.90
29237;DHT22;16266;50.866;4.398;2022-07-29T00:26:34;18.80;99.90
29237;DHT22;16266;50.866;4.398;2022-07-29T00:29:00;18.70;99.90
29237;DHT22;16266;50.866;4.398;2022-07-29T00:31:27;18.70;99.90
29237;DHT22;16266;50.866;4.398;2022-07-29T00:33:53;18.70;99.90
29237;DHT22;16266;50.866;4.398;2022-07-29T00:36:18;18.70;99.90
29237;DHT22;16266;50.866;4.398;2022-07-29T00:38:49;18.70;99.90
29237;DHT22;16266;50.866;4.398;2022-07-29T00:41:15;18.70;99.90
29237;DHT22;16266;50.866;4.398;2022-07-29T00:43:42;18.60;99.90
29237;DHT22;16266;50.866;4.398;2022-07-29T00:46:07;18.50;99.90
29237;DHT22;16266;50.866;4.398;2022-07-29T00:48:33;18.50;99.90
29237;DHT22;16266;50.866;4.398;2022-07-29T00:51:00;18.50;99.90
29237;DHT22;16266;50.866;4.398;2022-07-29T00:53:26;18.40;99.90
29237;DHT22;16266;50.866;4.398;2022-07-29T00:55:54;18.30;99.90
29237;DHT22;16266;50.866;4.398;2022-07-29T00:58:20;18.20;99.90
29237;DHT22;16266;50.866;4.398;2022-07-29T01:00:46;18.20;99.90
29237;DHT22;16266;50.866;4.398;2022-07-29T01:03:12;18.10;99.90
29237;DHT22;16266;50.866;4.398;2022-07-29T01:05:39;18.00;99.90
29237;DHT22;16266;50.866;4.398;2022-07-29T01:08:06;17.90;99.90
29237;DHT22;16266;50.866;4.398;2022-07-29T01:10:32;18.00;99.90
29237;DHT22;16266;50.866;4.398;2022-07-29T01:12:59;17.90;99.90
29237;DHT22;16266;50.866;4.398;2022-07-29T01:15:26;17.80;99.90
29237;DHT22;16266;50.866;4.398;2022-07-29T01:18:03;17.80;99.90
29237;DHT22;16266;50.866;4.398;2022-07-29T01:31:51;17.80;99.90
29237;DHT22;16266;50.866;4.398;2022-07-29T01:34:27;17.70;99.90
29237;DHT22;16266;50.866;4.398;2022-07-29T01:37:15;17.70;99.90
29237;DHT22;16266;50.866;4.398;2022-07-29T01:39:46;17.60;99.90
29237;DHT22;16266;50.866;4.398;2022-07-29T01:42:20;17.60;99.90
29237;DHT22;16266;50.866;4.398;2022-07-29T01:47:50;17.70;99.90
29237;DHT22;16266;50.866;4.398;2022-07-29T01:50:20;17.60;99.90
29237;DHT22;16266;50.866;4.398;2022-07-29T01:52:58;17.50;99.90
29237;DHT22;16266;50.866;4.398;2022-07-29T01:55:28;17.40;99.90
29237;DHT22;16266;50.866;4.398;2022-07-29T01:57:56;17.40;99.90
29237;DHT22;16266;50.866;4.398;2022-07-29T02:00:23;17.30;99.90
29237;DHT22;16266;50.866;4.398;2022-07-29T02:02:50;17.30;99.90
29237;DHT22;16266;50.866;4.398;2022-07-29T02:05:20;17.20;99.90
29237;DHT22;16266;50.866;4.398;2022-07-29T02:07:47;17.20;99.90
29237;DHT22;16266;50.866;4.398;2022-07-29T02:10:14;17.00;99.90
29237;DHT22;16266;50.866;4.398;2022-07-29T02:12:42;17.00;99.90
29237;DHT22;16266;50.866;4.398;2022-07-29T02:15:09;16.90;99.90
29237;DHT22;16266;50.866;4.398;2022-07-29T02:17:43;16.80;99.90
29237;DHT22;16266;50.866;4.398;2022-07-29T02:20:11;16.80;99.90
29237;DHT22;16266;50.866;4.398;2022-07-29T02:22:39;16.80;99.90
29237;DHT22;16266;50.866;4.398;2022-07-29T02:25:07;16.80;99.90
29237;DHT22;16266;50.866;4.398;2022-07-29T02:27:34;16.70;99.90
29237;DHT22;16266;50.866;4.398;2022-07-29T02:30:03;16.70;99.90
29237;DHT22;16266;50.866;4.398;2022-07-29T02:32:30;16.70;99.90
29237;DHT22;16266;50.866;4.398;2022-07-29T02:34:56;16.60;99.90
29237;DHT22;16266;50.866;4.398;2022-07-29T02:37:23;16.70;99.90
29237;DHT22;16266;50.866;4.398;2022-07-29T02:39:51;16.70;99.90
29237;DHT22;16266;50.866;4.398;2022-07-29T02:42:19;16.60;99.90
29237;DHT22;16266;50.866;4.398;2022-07-29T02:44:46;16.60;99.90
29237;DHT22;16266;50.866;4.398;2022-07-29T02:47:34;16.50;99.90
29237;DHT22;16266;50.866;4.398;2022-07-29T02:50:04;16.50;99.90
29237;DHT22;16266;50.866;4.398;2022-07-29T02:52:41;16.50;99.90
29237;DHT22;16266;50.866;4.398;2022-07-29T03:00:28;16.50;99.90
29237;DHT22;16266;50.866;4.398;2022-07-29T03:02:56;16.40;99.90
29237;DHT22;16266;50.866;4.398;2022-07-29T03:05:22;16.30;99.90
29237;DHT22;16266;50.866;4.398;2022-07-29T03:07:54;16.30;99.90
29237;DHT22;16266;50.866;4.398;2022-07-29T03:10:21;16.30;99.90
29237;DHT22;16266;50.866;4.398;2022-07-29T03:12:47;16.20;99.90
29237;DHT22;16266;50.866;4.398;2022-07-29T03:15:13;16.20;99.90
29237;DHT22;16266;50.866;4.398;2022-07-29T03:17:40;16.20;99.90
29237;DHT22;16266;50.866;4.398;2022-07-29T03:20:07;16.20;99.90
29237;DHT22;16266;50.866;4.398;2022-07-29T03:22:42;16.20;99.90
29237;DHT22;16266;50.866;4.398;2022-07-29T03:25:14;16.20;99.90
29237;DHT22;16266;50.866;4.398;2022-07-29T03:27:41;16.10;99.90
29237;DHT22;16266;50.866;4.398;2022-07-29T03:30:07;16.10;99.90
29237;DHT22;16266;50.866;4.398;2022-07-29T03:32:33;16.10;99.90
29237;DHT22;16266;50.866;4.398;2022-07-29T03:34:59;16.00;99.90
29237;DHT22;16266;50.866;4.398;2022-07-29T03:37:25;16.00;99.90
29237;DHT22;16266;50.866;4.398;2022-07-29T03:39:52;16.00;99.90
29237;DHT22;16266;50.866;4.398;2022-07-29T03:42:21;15.90;99.90
29237;DHT22;16266;50.866;4.398;2022-07-29T03:44:51;15.80;99.90
29237;DHT22;16266;50.866;4.398;2022-07-29T03:47:20;15.80;99.90
29237;DHT22;16266;50.866;4.398;2022-07-29T03:49:49;15.90;99.90
29237;DHT22;16266;50.866;4.398;2022-07-29T03:52:16;15.90;99.90
29237;DHT22;16266;50.866;4.398;2022-07-29T03:54:42;15.80;99.90
29237;DHT22;16266;50.866;4.398;2022-07-29T03:57:10;15.80;99.90
29237;DHT22;16266;50.866;4.398;2022-07-29T03:59:36;15.70;99.90
29237;DHT22;16266;50.866;4.398;2022-07-29T04:02:04;15.80;99.90
29237;DHT22;16266;50.866;4.398;2022-07-29T04:04:33;15.80;99.90
29237;DHT22;16266;50.866;4.398;2022-07-29T04:06:59;15.70;99.90
29237;DHT22;16266;50.866;4.398;2022-07-29T04:09:25;15.70;99.90
29237;DHT22;16266;50.866;4.398;2022-07-29T04:11:50;15.60;99.90
29237;DHT22;16266;50.866;4.398;2022-07-29T04:14:16;15.60;99.90
29237;DHT22;16266;50.866;4.398;2022-07-29T04:16:42;15.50;99.90
29237;DHT22;16266;50.866;4.398;2022-07-29T04:19:07;15.60;99.90
29237;DHT22;16266;50.866;4.398;2022-07-29T04:21:42;15.70;99.90
29237;DHT22;16266;50.866;4.398;2022-07-29T04:24:08;15.70;99.90
29237;DHT22;16266;50.866;4.398;2022-07-29T04:26:34;15.60;99.90
29237;DHT22;16266;50.866;4.398;2022-07-29T04:29:00;15.60;99.90
29237;DHT22;16266;50.866;4.398;2022-07-29T04:31:26;15.60;99.90
29237;DHT22;16266;50.866;4.398;2022-07-29T04:33:51;15.70;99.90
29237;DHT22;16266;50.866;4.398;2022-07-29T04:36:17;15.70;99.90
29237;DHT22;16266;50.866;4.398;2022-07-29T04:38:43;15.70;99.90
29237;DHT22;16266;50.866;4.398;2022-07-29T04:41:08;15.80;99.90
29237;DHT22;16266;50.866;4.398;2022-07-29T04:43:37;15.90;99.90
29237;DHT22;16266;50.866;4.398;2022-07-29T04:46:03;16.00;99.90
29237;DHT22;16266;50.866;4.398;2022-07-29T04:48:29;16.10;99.90
29237;DHT22;16266;50.866;4.398;2022-07-29T04:50:56;16.20;99.90
29237;DHT22;16266;50.866;4.398;2022-07-29T04:53:21;16.50;99.90
29237;DHT22;16266;50.866;4.398;2022-07-29T04:55:47;16.90;99.90
29237;DHT22;16266;50.866;4.398;2022-07-29T04:58:13;17.30;99.90
29237;DHT22;16266;50.866;4.398;2022-07-29T05:00:39;17.90;99.90
29237;DHT22;16266;50.866;4.398;2022-07-29T05:03:05;18.50;99.90
29237;DHT22;16266;50.866;4.398;2022-07-29T05:05:30;19.20;99.90
29237;DHT22;16266;50.866;4.398;2022-07-29T05:07:56;19.80;99.90
29237;DHT22;16266;50.866;4.398;2022-07-29T05:10:22;20.30;99.90
29237;DHT22;16266;50.866;4.398;2022-07-29T05:12:47;21.00;99.90
29237;DHT22;16266;50.866;4.398;2022-07-29T05:15:13;21.30;99.90
29237;DHT22;16266;50.866;4.398;2022-07-29T05:17:39;22.10;99.90
29237;DHT22;16266;50.866;4.398;2022-07-29T05:20:05;22.40;99.90
29237;DHT22;16266;50.866;4.398;2022-07-29T05:22:31;23.20;99.90
29237;DHT22;16266;50.866;4.398;2022-07-29T05:24:56;23.50;99.30
29237;DHT22;16266;50.866;4.398;2022-07-29T05:27:22;24.00;95.20
29237;DHT22;16266;50.866;4.398;2022-07-29T05:29:48;24.50;91.40
29237;DHT22;16266;50.866;4.398;2022-07-29T05:32:13;24.60;85.10
29237;DHT22;16266;50.866;4.398;2022-07-29T05:34:40;24.50;82.00
29237;DHT22;16266;50.866;4.398;2022-07-29T05:37:05;24.50;79.30
29237;DHT22;16266;50.866;4.398;2022-07-29T05:39:31;24.40;79.30
29237;DHT22;16266;50.866;4.398;2022-07-29T05:41:58;24.40;77.20
29237;DHT22;16266;50.866;4.398;2022-07-29T05:44:23;24.00;75.40
29237;DHT22;16266;50.866;4.398;2022-07-29T05:46:49;23.50;79.40
29237;DHT22;16266;50.866;4.398;2022-07-29T05:49:15;22.90;86.10
29237;DHT22;16266;50.866;4.398;2022-07-29T05:51:41;22.30;91.80
29237;DHT22;16266;50.866;4.398;2022-07-29T05:54:06;22.00;94.40
29237;DHT22;16266;50.866;4.398;2022-07-29T05:56:32;21.50;96.80
29237;DHT22;16266;50.866;4.398;2022-07-29T05:58:58;21.30;99.00
29237;DHT22;16266;50.866;4.398;2022-07-29T06:01:24;20.90;99.90
29237;DHT22;16266;50.866;4.398;2022-07-29T06:03:49;21.30;99.90
29237;DHT22;16266;50.866;4.398;2022-07-29T06:06:15;22.10;99.00
29237;DHT22;16266;50.866;4.398;2022-07-29T06:08:41;23.30;91.60
29237;DHT22;16266;50.866;4.398;2022-07-29T06:11:07;23.80;83.50
29237;DHT22;16266;50.866;4.398;2022-07-29T06:13:34;24.50;77.80
29237;DHT22;16266;50.866;4.398;2022-07-29T06:15:59;25.90;67.20
29237;DHT22;16266;50.866;4.398;2022-07-29T06:18:25;27.40;52.60
29237;DHT22;16266;50.866;4.398;2022-07-29T06:20:51;28.60;42.30
29237;DHT22;16266;50.866;4.398;2022-07-29T06:23:17;29.80;35.80
29237;DHT22;16266;50.866;4.398;2022-07-29T06:25:43;30.50;29.30
29237;DHT22;16266;50.866;4.398;2022-07-29T06:28:09;30.90;25.20
29237;DHT22;16266;50.866;4.398;2022-07-29T06:30:34;30.90;24.70
29237;DHT22;16266;50.866;4.398;2022-07-29T06:33:00;31.60;21.80
29237;DHT22;16266;50.866;4.398;2022-07-29T06:35:27;31.60;20.20
29237;DHT22;16266;50.866;4.398;2022-07-29T06:37:53;31.70;19.30
29237;DHT22;16266;50.866;4.398;2022-07-29T06:40:18;31.80;18.60
29237;DHT22;16266;50.866;4.398;2022-07-29T06:43:03;32.20;17.90
29237;DHT22;16266;50.866;4.398;2022-07-29T06:45:29;31.90;16.80
29237;DHT22;16266;50.866;4.398;2022-07-29T06:47:54;32.30;16.20
29237;DHT22;16266;50.866;4.398;2022-07-29T06:50:20;32.40;15.10
29237;DHT22;16266;50.866;4.398;2022-07-29T06:52:47;32.60;14.60
29237;DHT22;16266;50.866;4.398;2022-07-29T06:55:13;32.40;14.50
29237;DHT22;16266;50.866;4.398;2022-07-29T06:57:39;33.50;14.00
29237;DHT22;16266;50.866;4.398;2022-07-29T07:00:05;32.80;13.70
29237;DHT22;16266;50.866;4.398;2022-07-29T07:02:31;33.40;12.80
29237;DHT22;16266;50.866;4.398;2022-07-29T07:04:57;34.60;11.70
29237;DHT22;16266;50.866;4.398;2022-07-29T07:07:24;35.50;10.20
29237;DHT22;16266;50.866;4.398;2022-07-29T07:09:49;34.80;9.60
29237;DHT22;16266;50.866;4.398;2022-07-29T07:12:15;34.30;10.30
29237;DHT22;16266;50.866;4.398;2022-07-29T07:14:40;34.10;9.80
29237;DHT22;16266;50.866;4.398;2022-07-29T07:17:06;33.50;11.30
29237;DHT22;16266;50.866;4.398;2022-07-29T07:19:33;32.80;11.80
29237;DHT22;16266;50.866;4.398;2022-07-29T07:21:58;32.40;11.90
29237;DHT22;16266;50.866;4.398;2022-07-29T07:24:24;31.60;12.90
29237;DHT22;16266;50.866;4.398;2022-07-29T07:26:49;31.10;14.30
29237;DHT22;16266;50.866;4.398;2022-07-29T07:29:15;30.50;14.70
29237;DHT22;16266;50.866;4.398;2022-07-29T07:31:41;30.30;15.20
29237;DHT22;16266;50.866;4.398;2022-07-29T07:34:06;29.70;15.90
29237;DHT22;16266;50.866;4.398;2022-07-29T07:36:32;29.10;17.60
29237;DHT22;16266;50.866;4.398;2022-07-29T07:38:57;30.10;17.60
29237;DHT22;16266;50.866;4.398;2022-07-29T07:41:23;30.90;15.90
29237;DHT22;16266;50.866;4.398;2022-07-29T07:43:49;31.50;15.30
29237;DHT22;16266;50.866;4.398;2022-07-29T07:46:16;32.50;14.50
29237;DHT22;16266;50.866;4.398;2022-07-29T07:48:41;33.60;12.00
29237;DHT22;16266;50.866;4.398;2022-07-29T07:51:07;34.00;10.70
29237;DHT22;16266;50.866;4.398;2022-07-29T07:53:33;34.70;10.60
29237;DHT22;16266;50.866;4.398;2022-07-29T07:55:59;36.00;9.20
29237;DHT22;16266;50.866;4.398;2022-07-29T07:58:25;37.60;7.40
29237;DHT22;16266;50.866;4.398;2022-07-29T08:00:50;38.70;5.90
29237;DHT22;16266;50.866;4.398;2022-07-29T08:03:16;39.50;4.60
29237;DHT22;16266;50.866;4.398;2022-07-29T08:05:42;39.20;2.60
29237;DHT22;16266;50.866;4.398;2022-07-29T08:08:08;39.80;2.00
29237;DHT22;16266;50.866;4.398;2022-07-29T08:10:33;39.80;2.40
29237;DHT22;16266;50.866;4.398;2022-07-29T08:13:20;40.80;1.80
29237;DHT22;16266;50.866;4.398;2022-07-29T08:15:46;41.30;1.00
29237;DHT22;16266;50.866;4.398;2022-07-29T08:18:13;41.10;1.00
29237;DHT22;16266;50.866;4.398;2022-07-29T08:20:39;41.20;1.00
29237;DHT22;16266;50.866;4.398;2022-07-29T08:23:08;40.00;1.00
29237;DHT22;16266;50.866;4.398;2022-07-29T08:25:36;39.50;1.00
29237;DHT22;16266;50.866;4.398;2022-07-29T08:28:03;40.10;1.00
29237;DHT22;16266;50.866;4.398;2022-07-29T08:30:29;39.30;1.00
29237;DHT22;16266;50.866;4.398;2022-07-29T08:32:54;39.60;1.00
29237;DHT22;16266;50.866;4.398;2022-07-29T08:35:21;38.70;1.00
29237;DHT22;16266;50.866;4.398;2022-07-29T08:37:47;38.60;1.00
29237;DHT22;16266;50.866;4.398;2022-07-29T08:40:13;38.70;1.00
29237;DHT22;16266;50.866;4.398;2022-07-29T08:42:39;39.70;1.00
29237;DHT22;16266;50.866;4.398;2022-07-29T08:45:06;40.10;1.00
29237;DHT22;16266;50.866;4.398;2022-07-29T08:47:33;41.40;1.00
29237;DHT22;16266;50.866;4.398;2022-07-29T08:49:59;41.10;1.00
29237;DHT22;16266;50.866;4.398;2022-07-29T08:52:25;41.20;1.00
29237;DHT22;16266;50.866;4.398;2022-07-29T08:54:52;41.30;1.00
29237;DHT22;16266;50.866;4.398;2022-07-29T08:57:19;40.50;1.00
29237;DHT22;16266;50.866;4.398;2022-07-29T08:59:46;41.00;1.00
29237;DHT22;16266;50.866;4.398;2022-07-29T09:02:19;39.70;1.00
29237;DHT22;16266;50.866;4.398;2022-07-29T09:04:45;40.10;1.00
29237;DHT22;16266;50.866;4.398;2022-07-29T09:07:15;41.30;1.00
29237;DHT22;16266;50.866;4.398;2022-07-29T09:09:41;39.60;1.00
29237;DHT22;16266;50.866;4.398;2022-07-29T09:12:08;39.60;1.00
29237;DHT22;16266;50.866;4.398;2022-07-29T09:14:37;39.50;1.00
29237;DHT22;16266;50.866;4.398;2022-07-29T09:17:02;38.40;1.00
29237;DHT22;16266;50.866;4.398;2022-07-29T09:19:30;37.50;1.00
29237;DHT22;16266;50.866;4.398;2022-07-29T09:21:57;37.00;1.00
29237;DHT22;16266;50.866;4.398;2022-07-29T09:27:00;36.20;1.00
29237;DHT22;16266;50.866;4.398;2022-07-29T09:29:26;35.90;1.00
29237;DHT22;16266;50.866;4.398;2022-07-29T09:31:54;37.60;1.00
29237;DHT22;16266;50.866;4.398;2022-07-29T09:34:26;37.70;1.00
29237;DHT22;16266;50.866;4.398;2022-07-29T09:36:54;37.30;1.00
29237;DHT22;16266;50.866;4.398;2022-07-29T09:41:55;38.00;1.00
29237;DHT22;16266;50.866;4.398;2022-07-29T09:44:23;39.50;1.00
29237;DHT22;16266;50.866;4.398;2022-07-29T09:47:02;39.10;1.00
29237;DHT22;16266;50.866;4.398;2022-07-29T09:49:33;39.60;1.00
29237;DHT22;16266;50.866;4.398;2022-07-29T09:52:09;41.00;1.00
29237;DHT22;16266;50.866;4.398;2022-07-29T09:54:36;41.70;1.00
29237;DHT22;16266;50.866;4.398;2022-07-29T09:57:07;41.90;1.00
29237;DHT22;16266;50.866;4.398;2022-07-29T09:59:34;41.20;1.00
29237;DHT22;16266;50.866;4.398;2022-07-29T10:02:00;41.10;1.00
29237;DHT22;16266;50.866;4.398;2022-07-29T10:04:41;42.00;1.00
29237;DHT22;16266;50.866;4.398;2022-07-29T10:07:08;42.40;1.00
29237;DHT22;16266;50.866;4.398;2022-07-29T10:09:35;40.80;1.00
29237;DHT22;16266;50.866;4.398;2022-07-29T10:12:09;41.40;1.00
29237;DHT22;16266;50.866;4.398;2022-07-29T10:14:37;43.20;1.00
29237;DHT22;16266;50.866;4.398;2022-07-29T10:17:04;42.10;1.00
29237;DHT22;16266;50.866;4.398;2022-07-29T10:19:31;41.80;1.00
29237;DHT22;16266;50.866;4.398;2022-07-29T10:22:01;40.20;1.00
29237;DHT22;16266;50.866;4.398;2022-07-29T10:24:29;41.30;1.00
29237;DHT22;16266;50.866;4.398;2022-07-29T10:26:56;40.00;1.00
29237;DHT22;16266;50.866;4.398;2022-07-29T10:29:22;38.30;1.00
29237;DHT22;16266;50.866;4.398;2022-07-29T10:32:17;37.40;1.00
29237;DHT22;16266;50.866;4.398;2022-07-29T10:38:21;38.00;1.00
29237;DHT22;16266;50.866;4.398;2022-07-29T10:41:11;37.80;1.00
29237;DHT22;16266;50.866;4.398;2022-07-29T10:44:17;38.70;1.00
29237;DHT22;16266;50.866;4.398;2022-07-29T10:46:44;37.90;1.00
29237;DHT22;16266;50.866;4.398;2022-07-29T10:49:13;37.50;1.00
29237;DHT22;16266;50.866;4.398;2022-07-29T11:05:15;39.80;1.00
29237;DHT22;16266;50.866;4.398;2022-07-29T11:10:39;40.10;1.00
29237;DHT22;16266;50.866;4.398;2022-07-29T11:13:05;41.30;1.00
29237;DHT22;16266;50.866;4.398;2022-07-29T11:15:53;40.80;1.00
29237;DHT22;16266;50.866;4.398;2022-07-29T11:18:20;39.30;1.00
29237;DHT22;16266;50.866;4.398;2022-07-29T11:23:33;41.80;1.00
29237;DHT22;16266;50.866;4.398;2022-07-29T11:28:39;39.00;1.00
29237;DHT22;16266;50.866;4.398;2022-07-29T11:31:08;37.40;1.00
29237;DHT22;16266;50.866;4.398;2022-07-29T11:33:35;36.40;1.00
29237;DHT22;16266;50.866;4.398;2022-07-29T11:36:11;36.60;1.00
29237;DHT22;16266;50.866;4.398;2022-07-29T11:38:37;35.90;1.00
29237;DHT22;16266;50.866;4.398;2022-07-29T11:41:22;35.50;1.00
29237;DHT22;16266;50.866;4.398;2022-07-29T11:43:57;35.10;1.00
29237;DHT22;16266;50.866;4.398;2022-07-29T11:46:48;35.20;1.00
29237;DHT22;16266;50.866;4.398;2022-07-29T11:49:25;35.90;1.00
29237;DHT22;16266;50.866;4.398;2022-07-29T11:51:56;38.60;1.00
29237;DHT22;16266;50.866;4.398;2022-07-29T11:54:27;41.80;1.00
29237;DHT22;16266;50.866;4.398;2022-07-29T11:56:57;43.20;1.00
29237;DHT22;16266;50.866;4.398;2022-07-29T11:59:24;44.00;1.00
29237;DHT22;16266;50.866;4.398;2022-07-29T12:01:57;42.90;1.00
29237;DHT22;16266;50.866;4.398;2022-07-29T12:04:24;42.30;1.00
29237;DHT22;16266;50.866;4.398;2022-07-29T12:06:54;40.70;1.00
29237;DHT22;16266;50.866;4.398;2022-07-29T12:09:21;39.10;1.00
29237;DHT22;16266;50.866;4.398;2022-07-29T12:11:47;38.10;1.00
29237;DHT22;16266;50.866;4.398;2022-07-29T12:14:32;37.10;1.00
29237;DHT22;16266;50.866;4.398;2022-07-29T12:16:59;36.60;1.00
29237;DHT22;16266;50.866;4.398;2022-07-29T12:19:26;35.50;1.00
29237;DHT22;16266;50.866;4.398;2022-07-29T12:21:54;36.70;1.00
29237;DHT22;16266;50.866;4.398;2022-07-29T12:24:20;39.50;1.00
29237;DHT22;16266;50.866;4.398;2022-07-29T12:26:55;41.80;1.00
29237;DHT22;16266;50.866;4.398;2022-07-29T12:29:21;42.10;1.00
29237;DHT22;16266;50.866;4.398;2022-07-29T12:31:52;41.50;1.00
29237;DHT22;16266;50.866;4.398;2022-07-29T12:34:22;41.80;1.00
29237;DHT22;16266;50.866;4.398;2022-07-29T12:36:49;42.50;1.00
29237;DHT22;16266;50.866;4.398;2022-07-29T12:39:16;42.70;1.00
29237;DHT22;16266;50.866;4.398;2022-07-29T12:41:43;41.60;1.00
29237;DHT22;16266;50.866;4.398;2022-07-29T12:44:09;41.40;1.00
29237;DHT22;16266;50.866;4.398;2022-07-29T12:46:35;42.00;1.00
29237;DHT22;16266;50.866;4.398;2022-07-29T12:49:01;41.30;1.00
29237;DHT22;16266;50.866;4.398;2022-07-29T12:51:31;42.10;1.00
29237;DHT22;16266;50.866;4.398;2022-07-29T12:54:14;41.70;1.00
29237;DHT22;16266;50.866;4.398;2022-07-29T12:56:43;40.40;1.00
29237;DHT22;16266;50.866;4.398;2022-07-29T12:59:19;39.00;1.00
29237;DHT22;16266;50.866;4.398;2022-07-29T13:01:46;37.50;1.00
29237;DHT22;16266;50.866;4.398;2022-07-29T13:04:25;37.60;1.00
29237;DHT22;16266;50.866;4.398;2022-07-29T13:07:00;35.60;1.00
29237;DHT22;16266;50.866;4.398;2022-07-29T13:09:39;35.10;1.00
29237;DHT22;16266;50.866;4.398;2022-07-29T13:12:09;35.80;1.00
29237;DHT22;16266;50.866;4.398;2022-07-29T13:17:22;37.00;1.00
29237;DHT22;16266;50.866;4.398;2022-07-29T13:19:52;35.90;1.00
29237;DHT22;16266;50.866;4.398;2022-07-29T13:22:23;34.60;1.00
29237;DHT22;16266;50.866;4.398;2022-07-29T13:24:51;34.00;1.00
29237;DHT22;16266;50.866;4.398;2022-07-29T13:27:25;34.00;1.00
29237;DHT22;16266;50.866;4.398;2022-07-29T13:29:52;33.80;1.00
29237;DHT22;16266;50.866;4.398;2022-07-29T13:32:21;33.60;1.00
29237;DHT22;16266;50.866;4.398;2022-07-29T13:34:47;33.30;1.00
29237;DHT22;16266;50.866;4.398;2022-07-29T13:37:12;33.70;1.00
29237;DHT22;16266;50.866;4.398;2022-07-29T13:39:38;33.90;1.00
29237;DHT22;16266;50.866;4.398;2022-07-29T13:42:07;34.40;1.00
29237;DHT22;16266;50.866;4.398;2022-07-29T13:44:33;34.10;1.00
29237;DHT22;16266;50.866;4.398;2022-07-29T13:46:58;35.00;1.00
29237;DHT22;16266;50.866;4.398;2022-07-29T13:49:25;34.70;1.00
29237;DHT22;16266;50.866;4.398;2022-07-29T13:51:50;34.50;1.00
29237;DHT22;16266;50.866;4.398;2022-07-29T13:54:16;35.00;1.00
29237;DHT22;16266;50.866;4.398;2022-07-29T13:56:43;35.30;1.00
29237;DHT22;16266;50.866;4.398;2022-07-29T13:59:09;36.20;1.00
29237;DHT22;16266;50.866;4.398;2022-07-29T14:01:35;36.40;1.00
29237;DHT22;16266;50.866;4.398;2022-07-29T14:04:01;36.10;1.00
29237;DHT22;16266;50.866;4.398;2022-07-29T14:06:27;34.90;1.00
29237;DHT22;16266;50.866;4.398;2022-07-29T14:08:52;34.30;1.00
29237;DHT22;16266;50.866;4.398;2022-07-29T14:11:18;34.90;1.00
29237;DHT22;16266;50.866;4.398;2022-07-29T14:13:43;35.00;1.00
29237;DHT22;16266;50.866;4.398;2022-07-29T14:16:09;34.00;1.00
29237;DHT22;16266;50.866;4.398;2022-07-29T14:18:35;32.60;1.00
29237;DHT22;16266;50.866;4.398;2022-07-29T14:21:01;32.20;1.00
29237;DHT22;16266;50.866;4.398;2022-07-29T14:23:27;31.50;1.00
29237;DHT22;16266;50.866;4.398;2022-07-29T14:25:53;30.90;1.40
29237;DHT22;16266;50.866;4.398;2022-07-29T14:28:18;30.50;2.50
29237;DHT22;16266;50.866;4.398;2022-07-29T14:30:44;30.50;2.00
29237;DHT22;16266;50.866;4.398;2022-07-29T14:33:09;31.00;2.40
29237;DHT22;16266;50.866;4.398;2022-07-29T14:35:35;31.40;1.00
29237;DHT22;16266;50.866;4.398;2022-07-29T14:38:01;31.20;1.20
29237;DHT22;16266;50.866;4.398;2022-07-29T14:40:26;31.10;1.10
29237;DHT22;16266;50.866;4.398;2022-07-29T14:42:52;31.70;1.00
29237;DHT22;16266;50.866;4.398;2022-07-29T14:45:18;31.50;1.00
29237;DHT22;16266;50.866;4.398;2022-07-29T14:47:43;31.20;2.00
29237;DHT22;16266;50.866;4.398;2022-07-29T14:50:09;31.10;2.10
29237;DHT22;16266;50.866;4.398;2022-07-29T14:52:35;30.10;2.90
29237;DHT22;16266;50.866;4.398;2022-07-29T14:55:01;29.70;4.10
29237;DHT22;16266;50.866;4.398;2022-07-29T14:57:27;29.70;4.20
29237;DHT22;16266;50.866;4.398;2022-07-29T14:59:54;29.50;4.10
29237;DHT22;16266;50.866;4.398;2022-07-29T15:02:20;29.50;3.50
29237;DHT22;16266;50.866;4.398;2022-07-29T15:04:46;29.70;4.00
29237;DHT22;16266;50.866;4.398;2022-07-29T15:07:13;29.60;4.20
29237;DHT22;16266;50.866;4.398;2022-07-29T15:09:39;29.20;4.60
29237;DHT22;16266;50.866;4.398;2022-07-29T15:12:05;29.10;5.30
29237;DHT22;16266;50.866;4.398;2022-07-29T15:14:31;29.00;5.60
29237;DHT22;16266;50.866;4.398;2022-07-29T15:16:57;29.20;5.90
29237;DHT22;16266;50.866;4.398;2022-07-29T15:19:23;29.20;5.30
29237;DHT22;16266;50.866;4.398;2022-07-29T15:21:49;29.10;5.30
29237;DHT22;16266;50.866;4.398;2022-07-29T15:24:16;28.90;5.50
29237;DHT22;16266;50.866;4.398;2022-07-29T15:26:42;28.80;5.70
29237;DHT22;16266;50.866;4.398;2022-07-29T15:29:08;29.00;5.40
29237;DHT22;16266;50.866;4.398;2022-07-29T15:31:34;29.00;5.40
29237;DHT22;16266;50.866;4.398;2022-07-29T15:33:59;28.90;5.20
29237;DHT22;16266;50.866;4.398;2022-07-29T15:36:25;28.80;6.00
29237;DHT22;16266;50.866;4.398;2022-07-29T15:38:54;28.70;6.20
29237;DHT22;16266;50.866;4.398;2022-07-29T15:41:20;28.70;6.20
29237;DHT22;16266;50.866;4.398;2022-07-29T15:43:46;28.60;5.90
29237;DHT22;16266;50.866;4.398;2022-07-29T15:46:14;28.60;5.60
29237;DHT22;16266;50.866;4.398;2022-07-29T15:48:59;28.50;5.70
29237;DHT22;16266;50.866;4.398;2022-07-29T15:51:25;28.20;6.10
29237;DHT22;16266;50.866;4.398;2022-07-29T15:53:50;28.10;6.50
29237;DHT22;16266;50.866;4.398;2022-07-29T15:56:16;28.00;7.10
29237;DHT22;16266;50.866;4.398;2022-07-29T15:58:42;28.10;6.50
29237;DHT22;16266;50.866;4.398;2022-07-29T16:01:08;27.90;6.40
29237;DHT22;16266;50.866;4.398;2022-07-29T16:03:33;27.70;6.90
29237;DHT22;16266;50.866;4.398;2022-07-29T16:05:59;27.60;7.20
29237;DHT22;16266;50.866;4.398;2022-07-29T16:08:24;27.50;7.40
29237;DHT22;16266;50.866;4.398;2022-07-29T16:10:50;27.40;8.10
29237;DHT22;16266;50.866;4.398;2022-07-29T16:13:16;27.50;8.40
29237;DHT22;16266;50.866;4.398;2022-07-29T16:15:41;27.70;8.30
29237;DHT22;16266;50.866;4.398;2022-07-29T16:18:07;27.60;8.30
29237;DHT22;16266;50.866;4.398;2022-07-29T16:20:34;27.70;8.10
29237;DHT22;16266;50.866;4.398;2022-07-29T16:23:00;27.80;7.90
29237;DHT22;16266;50.866;4.398;2022-07-29T16:25:26;27.80;8.60
29237;DHT22;16266;50.866;4.398;2022-07-29T16:27:51;27.60;8.30
29237;DHT22;16266;50.866;4.398;2022-07-29T16:30:17;27.50;9.10
29237;DHT22;16266;50.866;4.398;2022-07-29T16:32:43;27.50;8.90
29237;DHT22;16266;50.866;4.398;2022-07-29T16:35:09;27.40;9.00
29237;DHT22;16266;50.866;4.398;2022-07-29T16:37:34;27.30;9.30